De Kalb, MS (39328)

2:45 PM CDT on May 24, 2015 (GMT -0500)
Meridian Naval Air Station | | Change Station
CLOSE
Current Station
Airport
Location: Meridian NAS,
Elevation: 318 ft
Nearby Weather Stations

Elev 318 ft 32.55 °N, 88.56 °W | Updated 24 minutes ago

Overcast
Overcast
71 °F
Feels Like 71 °F
N
10
Wind Variable Wind from SSE
Gusts 18 mph

Today
High -- | Low -- °F
--% Chance of Precip.
Yesterday
High -- | Low -- °F
Precip. -- in
5:50 AM 7:52 PM
Waxing Crescent, 41% visible
Pressure 30.12 in
Visibility 3.0 miles
Clouds Few 3300 ft
Scattered Clouds 4100 ft
Mostly Cloudy 5500 ft
Dew Point 66 °F
Humidity 84%
Rainfall 0.00 in
Snow Depth Not available.
UV 6 out of 12
Pollen 6.30 out of 12
Air Quality Not available.
Flu Activity No Activity
SPECI KNMM 241921Z AUTO 16009G16KT 3SM -TSRA FEW033 SCT041 BKN055 22/19 A3012 RMK AO2 PK WND 17035/1908 RAB10 TSB1858B02B03 P0016 T02170189 $

More Conditions Fewer Conditions

Pressure 30.12 in
Visibility 3.0 miles
Clouds Few 3300 ft
Scattered Clouds 4100 ft
Mostly Cloudy 5500 ft
Dew Point 66 °F
Humidity 84%
Rainfall 0.00 in
Snow Depth Not available.
UV 6 out of 12
Pollen 6.30 out of 12
Air Quality Not available.
Flu Activity No Activity
SPECI KNMM 241921Z AUTO 16009G16KT 3SM -TSRA FEW033 SCT041 BKN055 22/19 A3012 RMK AO2 PK WND 17035/1908 RAB10 TSB1858B02B03 P0016 T02170189 $

More Conditions Fewer Conditions

10-Day Weather Forecast

Almanac

Astronomy

May. 24, 2015 Rise Set
Actual Time
Civil Twilight
Nautical Twilight
Astronomical Twilight
Moon
Length of Visible Light
Length of Day
Tomorrow will be .
, % of the Moon is Illuminated

Today's Extremes

State Highs State Lows

Community

WunderPhotos

Upload Photos

1,823,844 photos uploaded!

WunderBlogs® & News

Nearby

Air Quality

  Air Quality AQ Index Pollutant
Not available.

Snow Depth

Station Depth Elevation

Earthquake Activity

City Distance Mag. Time & Date
Minimum magnitude displayed is 2.5.

Coastal Water Temperatures

Place Temperature

Stations

Nearby Weather Stations

Station Location Temp. Windchill Dew Point Humidity Wind Precip. Elev Updated Type